Time;durP1;ratioP1;P1;durP2;ratioP2;P2;SDS_P1;SDS_P2;PMS_P1;PMS_P2;Temp;Humidity;BMP_temperature;BMP_pressure;BME280_temperature;BME280_humidity;BME280_pressure;Samples;Min_cycle;Max_cycle;Signal;HPM_P1;HPM_P2
2023/03/20 00:01:25;;;;;;;7.82;4.00;;;7.90;99.90;;;;;;5101909;28;20544;-83
2023/03/20 00:03:52;;;;;;;6.57;3.38;;;7.90;99.90;;;;;;5102004;28;20135;-83
2023/03/20 00:06:23;;;;;;;6.80;3.95;;;7.80;99.90;;;;;;5068630;28;20076;-83
2023/03/20 00:08:52;;;;;;;6.20;3.45;;;7.80;99.90;;;;;;5069039;28;20072;-83
2023/03/20 00:11:35;;;;;;;8.80;3.80;;;7.80;99.90;;;;;;5068746;28;20044;-83
2023/03/20 00:14:05;;;;;;;6.90;3.70;;;7.80;99.90;;;;;;5068218;28;20513;-83
2023/03/20 00:16:39;;;;;;;7.30;3.53;;;7.90;99.90;;;;;;5068290;28;20044;-83
2023/03/20 00:19:09;;;;;;;9.82;4.32;;;7.80;99.90;;;;;;5084952;28;20409;-83
2023/03/20 00:21:36;;;;;;;7.22;3.80;;;7.80;99.90;;;;;;5068608;28;20033;-83
2023/03/20 00:24:02;;;;;;;7.65;3.88;;;7.80;99.90;;;;;;5072730;28;20429;-83
2023/03/20 00:26:35;;;;;;;8.73;4.47;;;7.80;99.90;;;;;;5071811;28;20075;-83
2023/03/20 00:29:03;;;;;;;9.05;4.13;;;7.70;99.90;;;;;;5072514;28;20507;-83
2023/03/20 00:31:35;;;;;;;10.52;5.03;;;7.70;99.90;;;;;;5071783;28;20382;-83
2023/03/20 00:34:08;;;;;;;7.55;4.18;;;7.70;99.90;;;;;;5105716;28;20041;-83
2023/03/20 00:36:35;;;;;;;6.95;3.97;;;7.70;99.90;;;;;;5105259;28;20029;-84
2023/03/20 00:39:03;;;;;;;7.60;3.97;;;7.80;99.90;;;;;;5072227;28;20095;-83
2023/03/20 00:41:35;;;;;;;7.90;3.80;;;7.70;99.90;;;;;;5088698;28;20091;-83
2023/03/20 00:44:15;;;;;;;9.93;4.10;;;7.70;99.90;;;;;;5088471;28;20099;-83
2023/03/20 00:46:42;;;;;;;10.38;4.90;;;7.70;99.90;;;;;;5072157;28;20566;-83
2023/03/20 00:49:11;;;;;;;8.20;4.30;;;7.70;99.90;;;;;;5105614;28;20051;-83
2023/03/20 00:51:38;;;;;;;8.18;3.88;;;7.70;99.90;;;;;;5105331;28;20090;-84
2023/03/20 00:54:12;;;;;;;7.40;3.55;;;7.70;99.90;;;;;;5075279;28;20072;-83
2023/03/20 00:56:49;;;;;;;7.82;4.10;;;7.70;99.90;;;;;;5071812;28;20037;-83
2023/03/20 00:59:19;;;;;;;7.75;3.55;;;7.70;99.90;;;;;;5071531;28;20068;-83
2023/03/20 01:01:46;;;;;;;7.75;4.30;;;7.70;99.90;;;;;;5088139;28;20107;-83
2023/03/20 01:04:16;;;;;;;8.00;4.00;;;7.70;99.90;;;;;;5072342;28;20080;-83
2023/03/20 01:06:43;;;;;;;8.85;3.80;;;7.60;99.90;;;;;;5071445;28;20187;-83
2023/03/20 01:09:10;;;;;;;9.82;4.05;;;7.60;99.90;;;;;;5105108;28;20059;-83
2023/03/20 01:11:39;;;;;;;8.57;4.03;;;7.60;99.90;;;;;;5088507;28;20574;-83
2023/03/20 01:14:12;;;;;;;7.80;3.92;;;7.50;99.90;;;;;;5088315;28;20533;-83
2023/03/20 01:16:39;;;;;;;8.85;4.00;;;7.50;99.90;;;;;;5071869;28;20103;-83
2023/03/20 01:19:06;;;;;;;11.13;4.38;;;7.50;99.90;;;;;;5088238;28;20572;-83
2023/03/20 01:21:33;;;;;;;7.63;3.97;;;7.50;99.90;;;;;;5088625;28;20045;-83
2023/03/20 01:23:59;;;;;;;12.60;4.15;;;7.50;99.90;;;;;;5071367;28;20037;-83
2023/03/20 01:26:32;;;;;;;8.93;3.90;;;7.40;99.90;;;;;;5088159;28;20047;-83
2023/03/20 01:28:59;;;;;;;8.52;4.25;;;7.40;99.90;;;;;;5104346;28;20044;-82
2023/03/20 01:31:26;;;;;;;8.13;3.28;;;7.50;99.90;;;;;;5088057;28;20900;-83
2023/03/20 01:33:53;;;;;;;9.30;4.45;;;7.50;99.90;;;;;;5087209;28;20037;-83
2023/03/20 01:36:22;;;;;;;10.30;3.42;;;7.50;99.90;;;;;;5088022;28;20041;-83
2023/03/20 01:38:57;;;;;;;9.90;4.07;;;7.40;99.90;;;;;;5071078;28;20477;-83
2023/03/20 01:41:25;;;;;;;7.95;3.90;;;7.40;99.90;;;;;;5087536;28;20404;-83
2023/03/20 01:43:52;;;;;;;10.63;3.97;;;7.40;99.90;;;;;;5087573;28;20041;-83
2023/03/20 01:46:30;;;;;;;7.15;4.00;;;7.40;99.90;;;;;;5088132;28;20120;-83
2023/03/20 01:49:23;;;;;;;9.73;3.40;;;7.40;99.90;;;;;;5087611;28;20049;-83
2023/03/20 01:51:51;;;;;;;8.25;3.63;;;7.40;99.90;;;;;;5079859;28;20135;-83
2023/03/20 01:54:28;;;;;;;10.23;3.88;;;7.40;99.90;;;;;;5070898;28;20040;-83
2023/03/20 01:57:33;;;;;;;9.77;3.70;;;7.40;99.90;;;;;;5070656;28;20037;-83
2023/03/20 02:00:11;;;;;;;9.10;3.45;;;7.40;99.90;;;;;;5091430;28;20028;-83
2023/03/20 02:02:39;;;;;;;6.63;3.50;;;7.40;99.90;;;;;;5113507;28;20489;-83
2023/03/20 02:05:10;;;;;;;7.15;3.70;;;7.40;99.90;;;;;;5087674;28;20520;-83
2023/03/20 02:07:38;;;;;;;8.10;3.70;;;7.40;99.90;;;;;;5071192;28;20043;-83
2023/03/20 02:10:09;;;;;;;8.82;3.55;;;7.40;99.90;;;;;;5103826;28;20051;-83
2023/03/20 02:12:37;;;;;;;8.52;3.70;;;7.50;99.90;;;;;;5070701;28;20095;-83
2023/03/20 02:15:05;;;;;;;8.55;3.10;;;7.40;99.90;;;;;;5086812;28;20436;-83
2023/03/20 02:17:32;;;;;;;11.00;3.40;;;7.40;99.90;;;;;;5103851;28;20045;-83
2023/03/20 02:20:22;;;;;;;11.30;3.72;;;7.40;99.90;;;;;;5103515;28;20069;-83
2023/03/20 02:22:49;;;;;;;10.00;3.78;;;7.40;99.90;;;;;;5103867;28;20497;-83
2023/03/20 02:25:34;;;;;;;9.13;3.67;;;7.40;99.90;;;;;;5104088;28;20095;-83
2023/03/20 02:28:39;;;;;;;8.18;4.30;;;7.40;99.90;;;;;;5103253;28;20044;-83
2023/03/20 02:31:44;;;;;;;13.77;4.43;;;7.40;99.90;;;;;;5050750;28;20098;-83
2023/03/20 02:34:35;;;;;;;8.32;4.00;;;7.40;99.90;;;;;;5083271;28;20128;-82
2023/03/20 02:37:02;;;;;;;8.35;3.80;;;7.40;99.90;;;;;;5099882;28;20045;-83
2023/03/20 02:39:40;;;;;;;11.77;4.75;;;7.50;99.90;;;;;;5092352;28;20090;-83
2023/03/20 02:42:11;;;;;;;9.02;4.15;;;7.40;99.90;;;;;;5102793;28;20041;-83
2023/03/20 02:45:04;;;;;;;14.32;5.30;;;7.40;99.90;;;;;;5086471;28;20083;-83
2023/03/20 02:47:54;;;;;;;9.43;4.43;;;7.50;99.90;;;;;;5069885;28;20106;-83
2023/03/20 02:50:31;;;;;;;9.57;4.88;;;7.40;99.90;;;;;;5070466;28;20389;-83
2023/03/20 02:53:26;;;;;;;13.82;5.13;;;7.40;99.90;;;;;;5086096;28;20041;-83
2023/03/20 02:56:09;;;;;;;11.68;5.57;;;7.50;99.90;;;;;;5103423;28;20037;-83
2023/03/20 02:59:09;;;;;;;11.98;4.60;;;7.50;99.90;;;;;;5103365;28;20029;-83
2023/03/20 03:01:42;;;;;;;10.95;4.53;;;7.50;99.90;;;;;;5073918;28;20053;-83
2023/03/20 03:04:15;;;;;;;11.40;4.88;;;7.50;99.90;;;;;;5086242;28;20494;-83
2023/03/20 03:06:45;;;;;;;10.32;5.22;;;7.50;99.90;;;;;;5086487;28;20044;-83
2023/03/20 03:09:26;;;;;;;12.35;4.80;;;7.50;99.90;;;;;;5069425;28;20049;-83
2023/03/20 03:12:01;;;;;;;9.82;4.90;;;7.60;99.90;;;;;;5069871;28;20037;-83
2023/03/20 03:14:50;;;;;;;10.48;4.72;;;7.50;99.90;;;;;;5086115;28;20044;-83
2023/03/20 03:17:20;;;;;;;10.50;5.18;;;7.50;99.90;;;;;;5085672;28;20041;-84
2023/03/20 03:19:49;;;;;;;12.77;4.60;;;7.50;99.90;;;;;;5069442;28;20477;-83
2023/03/20 03:22:17;;;;;;;11.00;5.00;;;7.50;99.90;;;;;;5085713;28;20794;-83
2023/03/20 03:24:46;;;;;;;11.52;5.03;;;7.50;99.90;;;;;;5069497;28;20515;-83
2023/03/20 03:27:33;;;;;;;16.45;5.75;;;7.50;99.90;;;;;;5068540;28;20525;-83
2023/03/20 03:30:05;;;;;;;11.77;4.30;;;7.50;99.90;;;;;;5102733;28;20485;-83
2023/03/20 03:32:36;;;;;;;13.45;4.78;;;7.50;99.90;;;;;;5069562;28;20048;-83
2023/03/20 03:35:06;;;;;;;15.05;5.60;;;7.50;99.90;;;;;;5069140;28;20033;-84
2023/03/20 03:37:47;;;;;;;16.38;6.03;;;7.50;99.90;;;;;;5069221;28;20036;-83
2023/03/20 03:40:26;;;;;;;12.02;5.32;;;7.50;99.90;;;;;;5068573;28;20087;-83
2023/03/20 03:43:00;;;;;;;14.77;6.13;;;7.50;99.90;;;;;;5069255;28;20489;-83
2023/03/20 03:45:35;;;;;;;13.48;6.40;;;7.50;99.90;;;;;;5068656;28;20049;-83
2023/03/20 03:48:07;;;;;;;18.60;6.80;;;7.50;99.90;;;;;;5102081;28;20037;-83
2023/03/20 03:51:00;;;;;;;12.88;6.22;;;7.50;99.90;;;;;;5069242;28;20047;-83
2023/03/20 03:53:36;;;;;;;13.45;6.30;;;7.50;99.90;;;;;;5068251;28;20513;-83
2023/03/20 03:56:07;;;;;;;13.13;7.05;;;7.60;99.90;;;;;;5085338;28;20436;-83
2023/03/20 03:58:47;;;;;;;23.13;7.30;;;7.60;99.90;;;;;;5075362;28;20397;-83
2023/03/20 04:01:16;;;;;;;16.20;7.20;;;7.60;99.90;;;;;;5075158;28;20068;-83
2023/03/20 04:03:51;;;;;;;18.27;7.55;;;7.60;99.90;;;;;;5075533;28;20055;-83
2023/03/20 04:06:19;;;;;;;15.68;6.97;;;7.60;99.90;;;;;;5075082;28;20072;-83
2023/03/20 04:08:45;;;;;;;16.75;7.70;;;7.60;99.90;;;;;;5075296;28;20037;-83
2023/03/20 04:11:21;;;;;;;16.15;7.43;;;7.60;99.90;;;;;;5074893;28;20094;-83
2023/03/20 04:13:49;;;;;;;16.90;7.80;;;7.60;99.90;;;;;;5075632;28;20076;-83
2023/03/20 04:16:18;;;;;;;17.52;7.55;;;7.50;99.90;;;;;;5074972;28;20648;-83
2023/03/20 04:18:46;;;;;;;16.27;7.78;;;7.60;99.90;;;;;;5108474;28;20037;-83
2023/03/20 04:21:14;;;;;;;16.88;8.05;;;7.60;99.90;;;;;;5075074;28;20041;-83
2023/03/20 04:23:41;;;;;;;16.27;7.82;;;7.60;99.90;;;;;;5108614;28;20045;-83
2023/03/20 04:26:08;;;;;;;19.15;7.45;;;7.50;99.90;;;;;;5091944;28;20056;-83
2023/03/20 04:28:34;;;;;;;19.38;7.50;;;7.60;99.90;;;;;;5075023;28;20451;-83
2023/03/20 04:31:01;;;;;;;12.05;6.35;;;7.60;99.90;;;;;;5075281;28;20135;-83
2023/03/20 04:33:28;;;;;;;16.83;7.10;;;7.60;99.90;;;;;;5091350;28;20037;-83
2023/03/20 04:35:55;;;;;;;15.77;7.00;;;7.60;99.90;;;;;;5108766;28;20103;-83
2023/03/20 04:38:23;;;;;;;16.80;7.20;;;7.60;99.90;;;;;;5074815;28;20044;-83
2023/03/20 04:40:50;;;;;;;16.92;6.45;;;7.50;99.90;;;;;;5108790;28;20037;-83
2023/03/20 04:43:16;;;;;;;15.80;6.75;;;7.60;99.90;;;;;;5091464;28;20063;-83
2023/03/20 04:45:43;;;;;;;15.43;6.07;;;7.60;99.90;;;;;;5091886;28;20040;-83
2023/03/20 04:48:10;;;;;;;12.90;6.53;;;7.60;99.90;;;;;;5091323;28;20048;-83
2023/03/20 04:50:36;;;;;;;16.92;6.28;;;7.60;99.90;;;;;;5090919;28;20483;-83
2023/03/20 04:53:03;;;;;;;15.50;6.75;;;7.60;99.90;;;;;;5074791;28;20055;-83
2023/03/20 04:55:30;;;;;;;15.80;6.55;;;7.60;99.90;;;;;;5091615;28;20041;-83
2023/03/20 04:57:57;;;;;;;14.52;6.60;;;7.60;99.90;;;;;;5091635;28;20040;-83
2023/03/20 05:00:24;;;;;;;12.93;6.63;;;7.60;99.90;;;;;;5091442;28;20041;-83
2023/03/20 05:02:50;;;;;;;15.75;6.10;;;7.60;99.90;;;;;;5074598;28;20544;-83
2023/03/20 05:05:17;;;;;;;12.23;6.22;;;7.60;99.90;;;;;;5107928;28;20076;-83
2023/03/20 05:07:44;;;;;;;13.52;6.13;;;7.60;99.90;;;;;;5091368;28;20045;-83
2023/03/20 05:10:11;;;;;;;16.13;6.65;;;7.70;99.90;;;;;;5087461;28;20508;-83
2023/03/20 05:12:37;;;;;;;12.70;5.43;;;7.60;99.90;;;;;;5087587;28;20045;-84
2023/03/20 05:15:04;;;;;;;12.55;6.60;;;7.60;99.90;;;;;;5071494;28;20493;-83
2023/03/20 05:17:31;;;;;;;13.40;6.03;;;7.60;99.90;;;;;;5088227;28;20132;-83
2023/03/20 05:19:58;;;;;;;15.18;5.78;;;7.60;99.90;;;;;;5071570;28;20178;-83
2023/03/20 05:22:25;;;;;;;13.85;6.03;;;7.60;99.90;;;;;;5087346;28;20044;-83
2023/03/20 05:24:52;;;;;;;13.55;6.20;;;7.60;99.90;;;;;;5087969;28;20036;-83
2023/03/20 05:27:19;;;;;;;10.90;5.78;;;7.60;99.90;;;;;;5071193;28;20079;-84
2023/03/20 05:29:45;;;;;;;14.45;6.05;;;7.60;99.90;;;;;;5087649;28;20897;-83
2023/03/20 05:32:12;;;;;;;12.48;6.00;;;7.60;99.90;;;;;;5070808;28;20037;-83
2023/03/20 05:34:39;;;;;;;11.45;5.88;;;7.60;99.90;;;;;;5070484;28;20040;-83
2023/03/20 05:37:06;;;;;;;14.48;5.97;;;7.60;99.90;;;;;;5070738;28;20174;-83
2023/03/20 05:39:32;;;;;;;11.18;5.85;;;7.60;99.90;;;;;;5070731;28;20485;-83
2023/03/20 05:41:59;;;;;;;11.02;5.60;;;7.60;99.90;;;;;;5070994;28;20040;-83
2023/03/20 05:44:26;;;;;;;13.85;6.05;;;7.60;99.90;;;;;;5086587;28;20044;-84
2023/03/20 05:46:52;;;;;;;14.13;5.38;;;7.60;99.90;;;;;;5070888;28;20514;-83
2023/03/20 05:49:19;;;;;;;14.02;5.38;;;7.60;99.90;;;;;;5087176;28;20048;-83
2023/03/20 05:51:46;;;;;;;14.10;5.60;;;7.60;99.90;;;;;;5087074;28;20037;-83
2023/03/20 05:54:12;;;;;;;13.57;5.38;;;7.60;99.90;;;;;;5070218;28;20548;-83
2023/03/20 05:56:39;;;;;;;11.80;5.00;;;7.60;99.90;;;;;;5070279;28;20119;-83
2023/03/20 05:59:06;;;;;;;12.00;4.90;;;7.60;99.90;;;;;;5070396;28;20052;-83
2023/03/20 06:01:33;;;;;;;10.32;4.93;;;7.60;99.90;;;;;;5086837;28;20562;-83
2023/03/20 06:04:00;;;;;;;9.00;4.68;;;7.60;99.90;;;;;;5070449;28;20505;-83
2023/03/20 06:06:26;;;;;;;10.65;4.47;;;7.60;99.90;;;;;;5070231;28;20087;-84
2023/03/20 06:08:53;;;;;;;11.80;4.78;;;7.60;99.90;;;;;;5087122;28;20565;-83
2023/03/20 06:11:20;;;;;;;12.90;4.95;;;7.70;99.90;;;;;;5087110;28;20136;-83
2023/03/20 06:13:48;;;;;;;10.25;4.53;;;7.60;99.90;;;;;;5069891;28;20037;-83
2023/03/20 06:16:14;;;;;;;12.52;5.22;;;7.60;99.90;;;;;;5087012;28;20087;-83
2023/03/20 06:18:41;;;;;;;9.40;4.90;;;7.60;99.90;;;;;;5086529;28;20076;-83
2023/03/20 06:21:10;;;;;;;11.48;5.13;;;7.60;99.90;;;;;;5087122;28;20037;-83
2023/03/20 06:23:37;;;;;;;13.80;5.60;;;7.60;99.90;;;;;;5069982;28;20091;-84
2023/03/20 06:26:04;;;;;;;8.05;5.03;;;7.60;99.90;;;;;;5086774;28;20115;-83
2023/03/20 06:28:31;;;;;;;13.73;6.03;;;7.70;99.90;;;;;;5069816;28;20041;-83
2023/03/20 06:30:58;;;;;;;10.32;4.88;;;7.70;99.90;;;;;;5086964;28;20044;-83
2023/03/20 06:33:25;;;;;;;10.93;4.70;;;7.70;99.90;;;;;;5069865;28;20048;-83
2023/03/20 06:35:51;;;;;;;12.27;4.63;;;7.70;99.90;;;;;;5069284;28;20490;-83
2023/03/20 06:38:18;;;;;;;11.63;5.20;;;7.70;99.90;;;;;;5070054;28;20565;-83
2023/03/20 06:40:45;;;;;;;14.75;5.60;;;7.70;99.90;;;;;;5086240;28;20048;-83
2023/03/20 06:43:11;;;;;;;11.80;4.65;;;7.70;99.90;;;;;;5069466;28;20045;-83
2023/03/20 06:45:39;;;;;;;10.43;4.68;;;7.70;99.90;;;;;;5085793;28;20044;-83
2023/03/20 06:48:07;;;;;;;14.05;5.45;;;7.70;99.90;;;;;;5070034;28;20047;-83
2023/03/20 06:50:34;;;;;;;12.07;5.60;;;7.80;99.90;;;;;;5086263;28;20048;-83
2023/03/20 06:53:01;;;;;;;12.90;6.18;;;7.80;99.90;;;;;;5085965;28;20167;-84
2023/03/20 06:55:28;;;;;;;14.15;6.13;;;7.80;99.90;;;;;;5086643;28;20525;-83
2023/03/20 06:57:55;;;;;;;13.68;5.32;;;7.80;99.90;;;;;;5069512;28;20045;-83
2023/03/20 07:00:22;;;;;;;11.25;5.00;;;7.80;99.90;;;;;;5102698;28;20049;-83
2023/03/20 07:02:48;;;;;;;12.73;5.53;;;7.80;99.90;;;;;;5085679;28;20088;-83
2023/03/20 07:05:16;;;;;;;10.60;4.85;;;7.80;99.90;;;;;;5069806;28;20045;-83
2023/03/20 07:07:43;;;;;;;12.02;4.95;;;7.80;99.90;;;;;;5086248;28;20044;-84
2023/03/20 07:10:11;;;;;;;9.77;5.05;;;7.90;99.90;;;;;;5086050;28;20036;-83
2023/03/20 07:12:38;;;;;;;12.60;5.60;;;7.80;99.90;;;;;;5085638;28;20090;-83
2023/03/20 07:15:05;;;;;;;9.00;4.75;;;7.90;99.90;;;;;;5069324;28;20029;-84
2023/03/20 07:17:32;;;;;;;13.43;6.03;;;7.90;99.90;;;;;;5102257;28;20497;-83
2023/03/20 07:19:59;;;;;;;11.32;5.40;;;7.90;99.90;;;;;;5068735;28;20047;-82
2023/03/20 07:22:27;;;;;;;12.00;5.60;;;7.90;99.90;;;;;;5069523;28;20075;-82
2023/03/20 07:24:54;;;;;;;10.90;5.55;;;7.90;99.90;;;;;;5102553;28;20048;-82
2023/03/20 07:27:21;;;;;;;10.30;5.32;;;7.90;99.90;;;;;;5069359;28;20382;-82
2023/03/20 07:29:48;;;;;;;12.57;6.05;;;7.90;99.90;;;;;;5069230;28;20040;-82
2023/03/20 07:32:15;;;;;;;11.88;6.00;;;7.90;99.90;;;;;;5085442;28;20048;-82
2023/03/20 07:34:42;;;;;;;14.90;6.40;;;8.00;99.90;;;;;;5085488;28;20098;-82
2023/03/20 07:37:09;;;;;;;12.40;5.88;;;8.00;99.90;;;;;;5085622;28;20115;-82
2023/03/20 07:39:36;;;;;;;13.27;6.10;;;8.10;99.90;;;;;;5069550;28;20568;-82
2023/03/20 07:42:03;;;;;;;14.45;6.35;;;8.00;99.90;;;;;;5069056;28;20036;-82
2023/03/20 07:44:29;;;;;;;12.68;5.88;;;8.10;99.90;;;;;;5085846;28;20048;-82
2023/03/20 07:46:56;;;;;;;15.27;6.70;;;8.10;99.90;;;;;;5068755;28;20041;-82
2023/03/20 07:49:23;;;;;;;12.13;6.00;;;8.10;99.90;;;;;;5085692;28;20044;-82
2023/03/20 07:51:51;;;;;;;13.05;6.43;;;8.20;99.90;;;;;;5085537;28;20036;-81
2023/03/20 07:54:17;;;;;;;11.10;5.80;;;8.20;99.90;;;;;;5069072;28;20037;-82
2023/03/20 07:56:44;;;;;;;12.02;6.07;;;8.30;99.90;;;;;;5066885;28;20128;-83
2023/03/20 07:59:12;;;;;;;10.63;6.15;;;8.30;99.90;;;;;;5051841;28;20037;-83
2023/03/20 08:01:39;;;;;;;15.98;6.55;;;8.40;99.90;;;;;;5068913;28;20829;-83
2023/03/20 08:04:06;;;;;;;12.70;7.03;;;8.40;99.90;;;;;;5068760;28;20555;-83
2023/03/20 08:06:33;;;;;;;13.35;6.38;;;8.50;99.90;;;;;;5085336;28;20044;-83
2023/03/20 08:08:59;;;;;;;10.90;6.43;;;8.50;99.90;;;;;;5101900;28;20041;-83
2023/03/20 08:11:26;;;;;;;14.43;6.32;;;8.50;99.90;;;;;;5068164;28;20045;-83
2023/03/20 08:13:53;;;;;;;11.65;5.70;;;8.60;99.90;;;;;;5085261;28;20109;-83
2023/03/20 08:16:19;;;;;;;10.80;5.93;;;8.50;99.90;;;;;;5066595;28;20091;-82
2023/03/20 08:18:46;;;;;;;14.40;6.13;;;8.60;99.90;;;;;;5067567;28;20405;-82
2023/03/20 08:21:13;;;;;;;11.50;5.78;;;8.70;99.90;;;;;;5084739;28;20503;-82
2023/03/20 08:23:39;;;;;;;15.88;6.68;;;8.80;99.90;;;;;;5067960;28;20052;-82
2023/03/20 08:26:07;;;;;;;12.73;6.28;;;8.80;99.90;;;;;;5067610;28;20045;-81
2023/03/20 08:28:34;;;;;;;13.70;6.18;;;8.90;99.90;;;;;;5051625;28;20409;-82
2023/03/20 08:31:01;;;;;;;13.35;5.95;;;8.90;99.90;;;;;;5068266;28;20052;-82
2023/03/20 08:33:27;;;;;;;11.45;5.65;;;9.00;99.90;;;;;;5084509;28;20124;-83
2023/03/20 08:35:57;;;;;;;12.40;5.97;;;9.10;99.90;;;;;;5051562;28;20920;-83
2023/03/20 08:38:24;;;;;;;13.57;5.40;;;8.80;99.90;;;;;;5084779;28;20041;-82
2023/03/20 08:40:51;;;;;;;13.50;6.13;;;9.10;99.90;;;;;;5084263;28;20040;-83
2023/03/20 08:43:18;;;;;;;13.65;6.05;;;9.10;99.90;;;;;;5068410;28;20116;-82
2023/03/20 08:45:44;;;;;;;13.50;5.50;;;9.10;99.90;;;;;;5072014;28;20128;-83
2023/03/20 08:48:11;;;;;;;12.55;6.22;;;9.10;99.90;;;;;;5071693;28;20051;-82
2023/03/20 08:50:38;;;;;;;17.05;6.60;;;9.20;99.90;;;;;;5105793;28;20135;-82
2023/03/20 08:53:08;;;;;;;10.77;6.07;;;9.20;99.90;;;;;;5104883;28;20056;-82
2023/03/20 08:55:35;;;;;;;11.90;6.15;;;9.20;99.90;;;;;;5105142;28;20532;-83
2023/03/20 08:58:01;;;;;;;12.55;5.80;;;9.20;99.90;;;;;;5088248;28;20068;-83
2023/03/20 09:00:28;;;;;;;14.18;5.32;;;9.30;99.90;;;;;;5105580;28;20513;-83
2023/03/20 09:02:55;;;;;;;13.18;6.18;;;9.30;99.90;;;;;;5087887;28;20057;-82
2023/03/20 09:05:22;;;;;;;13.25;5.47;;;9.30;99.90;;;;;;5088294;28;20060;-80
2023/03/20 09:07:50;;;;;;;13.25;6.30;;;9.40;99.90;;;;;;5088362;28;20053;-82
2023/03/20 09:10:17;;;;;;;12.15;5.82;;;9.40;99.90;;;;;;5084375;28;20041;-81
2023/03/20 09:12:43;;;;;;;16.10;5.55;;;9.40;99.90;;;;;;5067750;28;20546;-81
2023/03/20 09:15:10;;;;;;;12.57;5.45;;;9.50;99.90;;;;;;5084647;28;20135;-81
2023/03/20 09:17:37;;;;;;;11.95;6.07;;;9.50;99.90;;;;;;5094447;28;20513;-82
2023/03/20 09:20:05;;;;;;;12.95;6.68;;;9.50;99.90;;;;;;5054784;28;20123;-81
2023/03/20 09:22:32;;;;;;;14.38;5.75;;;9.50;99.90;;;;;;5071028;28;20056;-82
2023/03/20 09:24:59;;;;;;;12.80;5.90;;;9.50;99.90;;;;;;5070707;28;20400;-82
2023/03/20 09:27:25;;;;;;;14.63;6.25;;;9.60;99.90;;;;;;5071053;28;20041;-82
2023/03/20 09:29:52;;;;;;;14.35;6.15;;;9.70;99.90;;;;;;5070607;28;20040;-82
2023/03/20 09:32:19;;;;;;;11.30;6.00;;;9.90;99.90;;;;;;5071223;28;20037;-83
2023/03/20 09:34:46;;;;;;;13.82;6.28;;;10.10;99.90;;;;;;5071055;28;20037;-82
2023/03/20 09:37:12;;;;;;;12.75;6.13;;;10.10;99.90;;;;;;5070798;28;20124;-82
2023/03/20 09:39:39;;;;;;;13.40;5.90;;;10.20;99.90;;;;;;5070869;28;20037;-82
2023/03/20 09:42:57;;;;;;;13.90;6.05;;;10.40;99.90;;;;;;5087385;28;20133;-82
2023/03/20 09:45:39;;;;;;;11.93;6.00;;;10.60;99.90;;;;;;5081819;28;20059;-82
2023/03/20 09:48:24;;;;;;;13.40;5.93;;;10.80;99.90;;;;;;5104112;28;20049;-82
2023/03/20 09:51:20;;;;;;;15.83;5.67;;;10.80;99.90;;;;;;5070922;28;20053;-82
2023/03/20 09:53:52;;;;;;;15.80;5.90;;;10.70;99.90;;;;;;5103774;28;20109;-82
2023/03/20 09:56:24;;;;;;;12.75;4.95;;;10.60;99.90;;;;;;5086880;28;20366;-83
2023/03/20 09:59:01;;;;;;;14.10;5.82;;;10.40;99.90;;;;;;5103703;28;20044;-83
2023/03/20 10:01:46;;;;;;;13.95;5.57;;;10.30;99.90;;;;;;5087352;28;20048;-83
2023/03/20 10:04:14;;;;;;;12.10;5.22;;;10.40;99.90;;;;;;5070527;28;20052;-82
2023/03/20 10:06:41;;;;;;;11.40;5.50;;;10.30;99.90;;;;;;5087723;28;20110;-82
2023/03/20 10:09:16;;;;;;;11.93;4.88;;;10.40;99.90;;;;;;5103440;28;20040;-81
2023/03/20 10:12:20;;;;;;;11.70;4.82;;;10.50;99.90;;;;;;5067151;28;20517;-82
2023/03/20 10:15:26;;;;;;;12.05;5.55;;;10.60;99.90;;;;;;5086926;28;20049;-82
2023/03/20 10:18:15;;;;;;;11.45;5.00;;;10.60;99.90;;;;;;5068024;28;20048;-83
2023/03/20 10:21:03;;;;;;;11.07;5.13;;;10.60;99.90;;;;;;5067687;28;20122;-82
2023/03/20 10:23:58;;;;;;;9.98;5.03;;;10.70;99.90;;;;;;5070131;28;20041;-82
2023/03/20 10:26:27;;;;;;;11.10;5.28;;;10.80;99.90;;;;;;5086916;28;20047;-83
2023/03/20 10:29:05;;;;;;;12.13;5.18;;;10.80;99.90;;;;;;5102783;28;20444;-83
2023/03/20 10:31:32;;;;;;;12.40;5.47;;;10.90;99.90;;;;;;5069631;28;20045;-83
2023/03/20 10:34:32;;;;;;;10.02;4.65;;;10.80;99.90;;;;;;5069221;28;20045;-83
2023/03/20 10:37:08;;;;;;;10.63;4.40;;;10.80;99.90;;;;;;5102521;28;20041;-83
2023/03/20 10:39:59;;;;;;;10.52;4.35;;;10.70;99.90;;;;;;5102811;28;20068;-83
2023/03/20 10:42:47;;;;;;;11.07;4.25;;;10.80;99.90;;;;;;5069940;28;20055;-82
2023/03/20 10:45:29;;;;;;;8.63;4.40;;;10.80;99.90;;;;;;5069518;28;20090;-81
2023/03/20 10:48:00;;;;;;;9.25;4.43;;;10.80;99.90;;;;;;5069429;28;20049;-83
2023/03/20 10:50:32;;;;;;;11.48;5.00;;;10.90;99.90;;;;;;5086184;28;20040;-82
2023/03/20 10:53:01;;;;;;;12.70;4.93;;;10.90;99.90;;;;;;5102121;28;20535;-83
2023/03/20 10:55:31;;;;;;;16.90;5.35;;;10.90;99.90;;;;;;5085563;28;20429;-83
2023/03/20 10:58:04;;;;;;;9.52;4.93;;;10.80;99.90;;;;;;5102118;28;20114;-83
2023/03/20 11:00:32;;;;;;;13.75;5.40;;;10.80;99.90;;;;;;5102463;28;20048;-82
2023/03/20 11:02:59;;;;;;;11.20;5.57;;;10.90;99.90;;;;;;5084573;28;20061;-83
2023/03/20 11:05:26;;;;;;;10.52;5.45;;;10.90;99.90;;;;;;5086128;28;20056;-82
2023/03/20 11:08:02;;;;;;;13.40;5.93;;;10.80;99.90;;;;;;5102065;28;20060;-83
2023/03/20 11:10:33;;;;;;;11.13;5.50;;;10.70;99.90;;;;;;5118748;28;20554;-83
2023/03/20 11:13:32;;;;;;;10.57;5.50;;;10.70;99.90;;;;;;5068138;28;20433;-83
2023/03/20 11:16:20;;;;;;;13.10;6.20;;;10.60;99.90;;;;;;5068419;28;20406;-83
2023/03/20 11:18:51;;;;;;;12.27;6.22;;;10.50;99.90;;;;;;5069041;28;20386;-83
2023/03/20 11:21:30;;;;;;;13.43;6.57;;;10.50;99.90;;;;;;5085132;28;20485;-82
2023/03/20 11:23:57;;;;;;;11.50;5.90;;;10.50;99.90;;;;;;5085724;28;20041;-83
2023/03/20 11:26:40;;;;;;;11.98;6.30;;;10.40;99.90;;;;;;5101765;28;20485;-82
2023/03/20 11:29:28;;;;;;;13.05;6.57;;;10.40;99.90;;;;;;5102035;28;20076;-82
2023/03/20 11:32:07;;;;;;;12.65;5.88;;;10.40;99.90;;;;;;5101826;28;20072;-82
2023/03/20 11:34:37;;;;;;;13.90;6.00;;;10.40;99.90;;;;;;5085375;28;20120;-82
2023/03/20 11:37:19;;;;;;;13.40;6.05;;;10.40;99.90;;;;;;5085084;28;20033;-83
2023/03/20 11:39:58;;;;;;;14.52;7.00;;;10.40;99.90;;;;;;5068580;28;20122;-83
2023/03/20 11:42:28;;;;;;;14.02;6.38;;;10.40;99.90;;;;;;5068858;28;20059;-83
2023/03/20 11:45:14;;;;;;;14.30;6.05;;;10.40;99.90;;;;;;5101797;28;20072;-83
2023/03/20 11:47:41;;;;;;;;;;;10.40;99.90;;;;;;5085926;28;20040;-83
2023/03/20 11:50:26;;;;;;;12.43;5.97;;;10.40;99.90;;;;;;5101606;28;19940;-83
2023/03/20 11:52:53;;;;;;;15.40;7.22;;;10.50;99.90;;;;;;5084739;28;20076;-83
2023/03/20 11:55:28;;;;;;;14.10;6.10;;;10.50;99.90;;;;;;5068396;28;20548;-83
2023/03/20 11:58:00;;;;;;;11.45;6.72;;;10.50;99.90;;;;;;5064050;28;20076;-82
2023/03/20 12:00:41;;;;;;;13.88;6.55;;;10.60;99.90;;;;;;5076581;28;20100;-82
2023/03/20 12:03:46;;;;;;;12.35;6.40;;;10.60;99.90;;;;;;5087994;28;20094;-83
2023/03/20 12:06:19;;;;;;;14.18;6.35;;;10.50;99.90;;;;;;5083292;28;20072;-83
2023/03/20 12:08:54;;;;;;;11.35;5.57;;;10.50;99.90;;;;;;5066343;28;20708;-83
2023/03/20 12:11:38;;;;;;;15.50;5.70;;;10.30;99.90;;;;;;5068813;28;20095;-83
2023/03/20 12:14:14;;;;;;;11.75;5.03;;;10.30;99.90;;;;;;5072021;28;20409;-83
2023/03/20 12:16:41;;;;;;;11.57;4.88;;;10.30;99.90;;;;;;5068491;28;20033;-83
2023/03/20 12:19:17;;;;;;;12.18;4.90;;;10.30;99.90;;;;;;5087450;28;20063;-82
2023/03/20 12:21:51;;;;;;;15.27;5.38;;;10.40;99.90;;;;;;5072195;28;20037;-82
2023/03/20 12:24:40;;;;;;;12.27;4.47;;;10.40;99.90;;;;;;5071819;28;20041;-83
2023/03/20 12:27:15;;;;;;;10.23;4.20;;;10.40;99.90;;;;;;5071341;28;20041;-82
2023/03/20 12:29:57;;;;;;;11.83;4.07;;;10.30;99.90;;;;;;5088900;28;20048;-83
2023/03/20 12:32:39;;;;;;;10.30;3.85;;;10.30;99.90;;;;;;5072097;28;20111;-83
2023/03/20 12:35:23;;;;;;;15.25;4.15;;;10.20;99.90;;;;;;5088967;28;20044;-82
2023/03/20 12:37:51;;;;;;;7.40;3.60;;;10.20;99.90;;;;;;5088764;28;20032;-83
2023/03/20 12:40:21;;;;;;;7.43;3.58;;;10.10;99.90;;;;;;5071909;28;20100;-83
2023/03/20 12:43:09;;;;;;;8.25;3.67;;;10.00;99.90;;;;;;5072275;28;20044;-82
2023/03/20 12:45:45;;;;;;;8.93;3.58;;;9.90;99.90;;;;;;5105912;28;20040;-82
2023/03/20 12:48:24;;;;;;;14.15;4.43;;;9.80;99.90;;;;;;5072252;28;20029;-82
2023/03/20 12:51:02;;;;;;;10.10;4.30;;;9.70;99.90;;;;;;5072634;28;20171;-83
2023/03/20 12:53:44;;;;;;;11.88;4.40;;;9.80;99.90;;;;;;5071633;28;20052;-82
2023/03/20 12:56:47;;;;;;;12.25;4.68;;;9.80;99.90;;;;;;5071665;28;20040;-83
2023/03/20 12:59:29;;;;;;;11.55;4.45;;;9.90;99.90;;;;;;5088254;28;20505;-82
2023/03/20 13:02:07;;;;;;;11.05;5.70;;;9.90;99.90;;;;;;5088601;28;20045;-82
2023/03/20 13:04:37;;;;;;;12.02;4.63;;;9.90;99.90;;;;;;5071227;28;20071;-82
2023/03/20 13:07:20;;;;;;;9.63;3.95;;;9.90;99.90;;;;;;5104842;28;20528;-82
2023/03/20 13:10:05;;;;;;;10.00;4.25;;;9.80;99.90;;;;;;5071680;28;20123;-82
2023/03/20 13:13:05;;;;;;;8.15;4.00;;;9.80;99.90;;;;;;5086579;28;20529;-82
2023/03/20 13:16:02;;;;;;;7.68;3.80;;;9.80;99.90;;;;;;5087537;28;20083;-82